Time;durP1;ratioP1;P1;durP2;ratioP2;P2;SDS_P1;SDS_P2;PMS_P1;PMS_P2;Temp;Humidity;BMP_temperature;BMP_pressure;BME280_temperature;BME280_humidity;BME280_pressure;Samples;Min_cycle;Max_cycle;Signal;HPM_P1;HPM_P2
2024/02/19 00:00:19;;;;;;;0.00;0.00;;;;;;;;;;5073623;28;20151;-67
2024/02/19 00:02:44;;;;;;;0.20;0.20;;;;;;;;;;5087500;28;20028;-67
2024/02/19 00:05:09;;;;;;;0.63;0.63;;;;;;;;;;5084479;28;20255;-67
2024/02/19 00:07:35;;;;;;;0.00;0.00;;;;;;;;;;5085419;28;20325;-67
2024/02/19 00:10:00;;;;;;;0.40;0.40;;;;;;;;;;5093564;28;20284;-67
2024/02/19 00:12:26;;;;;;;0.20;0.20;;;;;;;;;;5091036;28;20020;-67
2024/02/19 00:14:51;;;;;;;0.00;0.00;;;;;;;;;;5084038;28;20031;-67
2024/02/19 00:17:16;;;;;;;0.23;0.23;;;;;;;;;;5078486;28;20256;-67
2024/02/19 00:19:41;;;;;;;0.30;0.30;;;;;;;;;;5073132;28;20265;-68
2024/02/19 00:22:08;;;;;;;0.00;0.00;;;;;;;;;;5073199;28;20257;-67
2024/02/19 00:24:33;;;;;;;0.00;0.00;;;;;;;;;;5072639;28;20261;-67
2024/02/19 00:26:58;;;;;;;0.00;0.00;;;;;;;;;;5081577;28;20161;-67
2024/02/19 00:29:23;;;;;;;0.10;0.10;;;;;;;;;;5073097;28;20028;-67
2024/02/19 00:31:49;;;;;;;0.10;0.10;;;;;;;;;;5072979;28;20032;-67
2024/02/19 00:34:14;;;;;;;0.00;0.00;;;;;;;;;;5073057;28;20016;-67
2024/02/19 00:36:39;;;;;;;0.10;0.10;;;;;;;;;;5082196;28;20016;-67
2024/02/19 00:39:05;;;;;;;0.00;0.00;;;;;;;;;;5093162;28;20016;-67
2024/02/19 00:41:30;;;;;;;0.22;0.22;;;;;;;;;;5093420;28;20530;-67
2024/02/19 00:43:55;;;;;;;0.10;0.10;;;;;;;;;;5091845;28;20030;-67
2024/02/19 00:46:20;;;;;;;0.17;0.17;;;;;;;;;;5082794;28;20273;-67
2024/02/19 00:48:46;;;;;;;0.07;0.07;;;;;;;;;;5083604;28;20528;-67
2024/02/19 00:51:11;;;;;;;0.25;0.25;;;;;;;;;;5087773;28;20346;-67
2024/02/19 00:53:39;;;;;;;0.10;0.10;;;;;;;;;;5075302;28;20028;-68
2024/02/19 00:56:05;;;;;;;0.20;0.20;;;;;;;;;;5074209;28;20048;-67
2024/02/19 00:58:30;;;;;;;0.95;0.32;;;;;;;;;;5073808;28;20514;-67
2024/02/19 01:00:57;;;;;;;1.50;0.33;;;;;;;;;;5080712;28;20387;-67
2024/02/19 01:03:23;;;;;;;0.45;0.30;;;;;;;;;;5084924;28;20381;-68
2024/02/19 01:05:48;;;;;;;0.17;0.17;;;;;;;;;;5092516;28;20115;-67
2024/02/19 01:08:13;;;;;;;0.05;0.05;;;;;;;;;;5093116;28;20027;-67
2024/02/19 01:10:39;;;;;;;0.30;0.30;;;;;;;;;;5076776;28;20043;-67
2024/02/19 01:13:04;;;;;;;0.00;0.00;;;;;;;;;;5081761;28;20648;-66
2024/02/19 01:15:29;;;;;;;0.00;0.00;;;;;;;;;;5079186;28;20620;-67
2024/02/19 01:17:54;;;;;;;0.20;0.20;;;;;;;;;;5092321;28;20020;-67
2024/02/19 01:20:20;;;;;;;0.00;0.00;;;;;;;;;;5089363;28;20017;-67
2024/02/19 01:22:45;;;;;;;0.05;0.05;;;;;;;;;;5086302;28;20471;-67
2024/02/19 01:25:10;;;;;;;0.10;0.10;;;;;;;;;;5078977;28;20119;-66
2024/02/19 01:27:36;;;;;;;0.00;0.00;;;;;;;;;;5073196;28;20032;-66
2024/02/19 01:30:01;;;;;;;0.20;0.20;;;;;;;;;;5076411;28;20024;-66
2024/02/19 01:32:26;;;;;;;0.10;0.10;;;;;;;;;;5092832;28;20355;-66
2024/02/19 01:34:52;;;;;;;0.52;0.52;;;;;;;;;;5077177;28;20020;-66
2024/02/19 01:37:17;;;;;;;0.20;0.20;;;;;;;;;;5085570;28;20485;-66
2024/02/19 01:39:43;;;;;;;0.50;0.50;;;;;;;;;;5092386;28;20024;-66
2024/02/19 01:42:08;;;;;;;0.17;0.17;;;;;;;;;;5089664;28;20283;-66
2024/02/19 01:44:36;;;;;;;0.10;0.10;;;;;;;;;;5078488;28;20038;-66
2024/02/19 01:47:01;;;;;;;0.00;0.00;;;;;;;;;;5092325;28;20031;-67
2024/02/19 01:49:27;;;;;;;0.40;0.40;;;;;;;;;;5090893;28;20031;-66
2024/02/19 01:51:53;;;;;;;0.20;0.20;;;;;;;;;;5095827;28;20027;-67
2024/02/19 01:54:18;;;;;;;0.98;0.35;;;;;;;;;;5089389;28;20024;-66
2024/02/19 01:56:44;;;;;;;0.10;0.10;;;;;;;;;;5077080;28;20020;-66
2024/02/19 01:59:10;;;;;;;0.10;0.10;;;;;;;;;;5091185;28;20020;-67
2024/02/19 02:01:36;;;;;;;0.08;0.08;;;;;;;;;;5079096;28;20093;-67
2024/02/19 02:04:03;;;;;;;0.00;0.00;;;;;;;;;;5081109;28;20498;-67
2024/02/19 02:06:28;;;;;;;0.03;0.03;;;;;;;;;;5089354;28;20024;-66
2024/02/19 02:08:53;;;;;;;0.03;0.03;;;;;;;;;;5076895;28;20496;-66
2024/02/19 02:11:19;;;;;;;0.00;0.00;;;;;;;;;;5076701;28;20077;-66
2024/02/19 02:13:45;;;;;;;0.32;0.30;;;;;;;;;;5087324;28;20028;-66
2024/02/19 02:16:10;;;;;;;0.20;0.20;;;;;;;;;;5096057;28;20020;-66
2024/02/19 02:18:35;;;;;;;0.10;0.10;;;;;;;;;;5091966;28;20023;-67
2024/02/19 02:21:01;;;;;;;0.00;0.00;;;;;;;;;;5076674;28;20264;-67
2024/02/19 02:23:26;;;;;;;0.45;0.45;;;;;;;;;;5077634;28;20021;-66
2024/02/19 02:25:53;;;;;;;0.00;0.00;;;;;;;;;;5077600;28;20067;-66
2024/02/19 02:28:18;;;;;;;0.08;0.08;;;;;;;;;;5089287;28;20616;-67
2024/02/19 02:30:43;;;;;;;0.30;0.30;;;;;;;;;;5088187;28;20020;-66
2024/02/19 02:33:08;;;;;;;0.10;0.10;;;;;;;;;;5078747;28;20257;-66
2024/02/19 02:35:34;;;;;;;0.10;0.10;;;;;;;;;;5095789;28;20062;-66
2024/02/19 02:37:59;;;;;;;0.05;0.05;;;;;;;;;;5078841;28;20253;-67
2024/02/19 02:40:25;;;;;;;0.30;0.30;;;;;;;;;;5073852;28;20045;-66
2024/02/19 02:42:50;;;;;;;0.10;0.10;;;;;;;;;;5084922;28;20077;-66
2024/02/19 02:45:15;;;;;;;0.40;0.40;;;;;;;;;;5093681;28;20024;-66
2024/02/19 02:47:41;;;;;;;0.10;0.10;;;;;;;;;;5095885;28;20039;-66
2024/02/19 02:50:06;;;;;;;0.30;0.30;;;;;;;;;;5080053;28;20314;-66
2024/02/19 02:52:31;;;;;;;0.13;0.13;;;;;;;;;;5076028;28;20070;-66
2024/02/19 02:54:56;;;;;;;0.00;0.00;;;;;;;;;;5082567;28;20417;-66
2024/02/19 02:57:22;;;;;;;0.30;0.30;;;;;;;;;;5095343;28;20253;-66
2024/02/19 02:59:47;;;;;;;0.27;0.27;;;;;;;;;;5076143;28;20713;-66
2024/02/19 03:02:12;;;;;;;0.10;0.10;;;;;;;;;;5089063;28;20785;-66
2024/02/19 03:04:38;;;;;;;0.05;0.05;;;;;;;;;;5085911;28;20025;-66
2024/02/19 03:07:03;;;;;;;0.00;0.00;;;;;;;;;;5080187;28;20069;-66
2024/02/19 03:09:29;;;;;;;0.32;0.32;;;;;;;;;;5095662;28;20028;-67
2024/02/19 03:11:54;;;;;;;0.00;0.00;;;;;;;;;;5095155;28;20084;-67
2024/02/19 03:14:19;;;;;;;0.10;0.10;;;;;;;;;;5093956;28;20016;-67
2024/02/19 03:16:44;;;;;;;1.47;0.60;;;;;;;;;;5094675;28;20491;-67
2024/02/19 03:19:10;;;;;;;0.00;0.00;;;;;;;;;;5086792;28;20024;-66
2024/02/19 03:21:36;;;;;;;0.20;0.20;;;;;;;;;;5095422;28;20264;-66
2024/02/19 03:24:01;;;;;;;0.10;0.10;;;;;;;;;;5087594;28;20669;-66
2024/02/19 03:26:27;;;;;;;0.00;0.00;;;;;;;;;;5086027;28;20051;-66
2024/02/19 03:28:52;;;;;;;0.20;0.20;;;;;;;;;;5095359;28;20099;-67
2024/02/19 03:31:20;;;;;;;0.03;0.03;;;;;;;;;;5094308;28;20476;-68
2024/02/19 03:33:46;;;;;;;0.00;0.00;;;;;;;;;;5079047;28;20256;-67
2024/02/19 03:36:11;;;;;;;0.00;0.00;;;;;;;;;;5094966;28;20460;-67
2024/02/19 03:38:37;;;;;;;0.10;0.10;;;;;;;;;;5084845;28;20100;-67
2024/02/19 03:41:04;;;;;;;0.55;0.55;;;;;;;;;;5072859;28;20123;-67
2024/02/19 03:43:29;;;;;;;0.00;0.00;;;;;;;;;;5079334;28;20069;-67
2024/02/19 03:45:55;;;;;;;0.05;0.05;;;;;;;;;;5094853;28;20406;-67
2024/02/19 03:48:20;;;;;;;0.00;0.00;;;;;;;;;;5094948;28;20050;-67
2024/02/19 03:50:46;;;;;;;0.10;0.10;;;;;;;;;;5092196;28;20031;-68
2024/02/19 03:53:11;;;;;;;0.10;0.10;;;;;;;;;;5090865;28;20033;-68
2024/02/19 03:55:36;;;;;;;0.00;0.00;;;;;;;;;;5081817;28;20264;-67
2024/02/19 03:58:01;;;;;;;0.03;0.03;;;;;;;;;;5094196;28;20031;-67
2024/02/19 04:00:27;;;;;;;0.10;0.10;;;;;;;;;;5094698;28;20035;-67
2024/02/19 04:02:52;;;;;;;0.00;0.00;;;;;;;;;;5080792;28;20042;-67
2024/02/19 04:05:17;;;;;;;0.00;0.00;;;;;;;;;;5074644;28;20024;-67
2024/02/19 04:07:42;;;;;;;0.05;0.05;;;;;;;;;;5079074;28;20261;-67
2024/02/19 04:10:08;;;;;;;0.00;0.00;;;;;;;;;;5094468;28;20047;-67
2024/02/19 04:12:33;;;;;;;0.10;0.10;;;;;;;;;;5076969;28;20291;-68
2024/02/19 04:14:58;;;;;;;0.00;0.00;;;;;;;;;;5085842;28;20165;-67
2024/02/19 04:17:25;;;;;;;0.10;0.10;;;;;;;;;;5094368;28;20257;-68
2024/02/19 04:19:51;;;;;;;0.10;0.10;;;;;;;;;;5085549;28;20020;-67
2024/02/19 04:22:16;;;;;;;0.10;0.10;;;;;;;;;;5090578;28;20362;-67
2024/02/19 04:24:42;;;;;;;0.00;0.00;;;;;;;;;;5074530;28;20028;-67
2024/02/19 04:27:07;;;;;;;0.00;0.00;;;;;;;;;;5091979;28;20268;-67
2024/02/19 04:29:32;;;;;;;0.03;0.03;;;;;;;;;;5094177;28;20264;-67
2024/02/19 04:31:57;;;;;;;0.00;0.00;;;;;;;;;;5083687;28;20124;-67
2024/02/19 04:34:23;;;;;;;0.00;0.00;;;;;;;;;;5092270;28;20808;-67
2024/02/19 04:36:48;;;;;;;0.00;0.00;;;;;;;;;;5092356;28;20016;-67
2024/02/19 04:39:13;;;;;;;0.00;0.00;;;;;;;;;;5093652;28;20248;-68
2024/02/19 04:41:39;;;;;;;0.10;0.10;;;;;;;;;;5091895;28;20055;-68
2024/02/19 04:44:04;;;;;;;0.03;0.03;;;;;;;;;;5093794;28;20383;-68
2024/02/19 04:46:31;;;;;;;1.30;0.30;;;;;;;;;;5088663;28;20374;-67
2024/02/19 04:48:56;;;;;;;0.32;0.30;;;;;;;;;;5091496;28;20253;-67
2024/02/19 04:51:21;;;;;;;0.00;0.00;;;;;;;;;;5087300;28;20039;-67
2024/02/19 04:53:46;;;;;;;0.00;0.00;;;;;;;;;;5093120;28;20259;-67
2024/02/19 04:56:15;;;;;;;0.20;0.13;;;;;;;;;;5081689;28;20249;-67
2024/02/19 04:58:40;;;;;;;0.10;0.10;;;;;;;;;;5077727;28;20578;-67
2024/02/19 05:01:06;;;;;;;0.10;0.10;;;;;;;;;;5093172;28;20031;-67
2024/02/19 05:03:31;;;;;;;0.10;0.10;;;;;;;;;;5093320;28;20029;-67
2024/02/19 05:05:56;;;;;;;0.00;0.00;;;;;;;;;;5092872;28;20031;-67
2024/02/19 05:08:22;;;;;;;0.10;0.10;;;;;;;;;;5081047;28;20047;-68
2024/02/19 05:10:48;;;;;;;0.00;0.00;;;;;;;;;;5073309;28;20312;-68
2024/02/19 05:13:13;;;;;;;0.10;0.10;;;;;;;;;;5073428;28;20048;-68
2024/02/19 05:15:38;;;;;;;0.10;0.10;;;;;;;;;;5073605;28;20023;-67
2024/02/19 05:18:04;;;;;;;0.10;0.10;;;;;;;;;;5073103;28;20032;-68
2024/02/19 05:20:29;;;;;;;0.00;0.00;;;;;;;;;;5073677;28;20017;-67
2024/02/19 05:22:54;;;;;;;0.37;0.30;;;;;;;;;;5073670;28;20026;-67
2024/02/19 05:25:19;;;;;;;1.20;0.22;;;;;;;;;;5072876;28;20281;-67
2024/02/19 05:27:45;;;;;;;0.00;0.00;;;;;;;;;;5073403;28;20472;-68
2024/02/19 05:30:12;;;;;;;0.00;0.00;;;;;;;;;;5073277;28;20028;-68
2024/02/19 05:32:37;;;;;;;0.10;0.10;;;;;;;;;;5073248;28;20253;-68
2024/02/19 05:35:03;;;;;;;0.10;0.10;;;;;;;;;;5073252;28;20032;-68
2024/02/19 05:37:28;;;;;;;1.52;1.42;;;;;;;;;;5073380;28;20285;-68
2024/02/19 05:39:53;;;;;;;0.00;0.00;;;;;;;;;;5073253;28;20048;-68
2024/02/19 05:42:19;;;;;;;0.00;0.00;;;;;;;;;;5073027;28;20277;-67
2024/02/19 05:44:44;;;;;;;0.10;0.10;;;;;;;;;;5073147;28;20250;-67
2024/02/19 05:47:10;;;;;;;0.05;0.05;;;;;;;;;;5073174;28;20024;-68
2024/02/19 05:49:35;;;;;;;0.00;0.00;;;;;;;;;;5073184;28;20063;-66
2024/02/19 05:52:00;;;;;;;0.10;0.10;;;;;;;;;;5073326;28;20158;-66
2024/02/19 05:54:26;;;;;;;0.00;0.00;;;;;;;;;;5073024;28;20036;-66
2024/02/19 05:56:51;;;;;;;0.00;0.00;;;;;;;;;;5073313;28;20016;-67
2024/02/19 05:59:16;;;;;;;0.10;0.10;;;;;;;;;;5072994;28;20025;-67
2024/02/19 06:01:42;;;;;;;0.00;0.00;;;;;;;;;;5073103;28;20050;-67
2024/02/19 06:04:07;;;;;;;0.00;0.00;;;;;;;;;;5073033;28;20710;-66
2024/02/19 06:06:33;;;;;;;0.10;0.10;;;;;;;;;;5072917;28;20019;-66
2024/02/19 06:08:59;;;;;;;0.00;0.00;;;;;;;;;;5073072;28;20028;-66
2024/02/19 06:11:25;;;;;;;0.03;0.03;;;;;;;;;;5072709;28;20070;-66
2024/02/19 06:13:51;;;;;;;0.00;0.00;;;;;;;;;;5073202;28;20028;-67
2024/02/19 06:16:17;;;;;;;0.10;0.10;;;;;;;;;;5073142;28;20020;-66
2024/02/19 06:18:42;;;;;;;0.05;0.05;;;;;;;;;;5073104;28;20017;-66
2024/02/19 06:21:07;;;;;;;0.00;0.00;;;;;;;;;;5072904;28;20381;-66
2024/02/19 06:23:32;;;;;;;0.00;0.00;;;;;;;;;;5072796;28;20241;-66
2024/02/19 06:25:59;;;;;;;0.00;0.00;;;;;;;;;;5072719;28;20605;-66
2024/02/19 06:28:24;;;;;;;0.28;0.20;;;;;;;;;;5072735;28;20028;-66
2024/02/19 06:30:49;;;;;;;0.00;0.00;;;;;;;;;;5072708;28;20023;-66
2024/02/19 06:33:15;;;;;;;0.00;0.00;;;;;;;;;;5072675;28;20250;-66
2024/02/19 06:35:41;;;;;;;0.00;0.00;;;;;;;;;;5073006;28;20238;-66
2024/02/19 06:38:06;;;;;;;0.00;0.00;;;;;;;;;;5075999;28;20024;-67
2024/02/19 06:40:31;;;;;;;0.00;0.00;;;;;;;;;;5076194;28;20245;-66
2024/02/19 06:42:56;;;;;;;0.05;0.05;;;;;;;;;;5076331;28;20029;-67
2024/02/19 06:45:22;;;;;;;0.00;0.00;;;;;;;;;;5076291;28;20024;-66
2024/02/19 06:47:47;;;;;;;0.07;0.07;;;;;;;;;;5076258;28;20070;-66
2024/02/19 06:50:12;;;;;;;0.00;0.00;;;;;;;;;;5076123;28;20253;-66
2024/02/19 06:52:43;;;;;;;0.00;0.00;;;;;;;;;;5076432;28;20316;-66
2024/02/19 06:55:08;;;;;;;0.05;0.05;;;;;;;;;;5063028;28;20261;-67
2024/02/19 06:57:33;;;;;;;0.00;0.00;;;;;;;;;;5096381;28;20425;-67
2024/02/19 06:59:58;;;;;;;0.77;0.27;;;;;;;;;;5096371;28;20633;-68
2024/02/19 07:02:24;;;;;;;0.00;0.00;;;;;;;;;;5096229;28;20252;-68
2024/02/19 07:04:49;;;;;;;0.10;0.10;;;;;;;;;;5096159;28;20624;-68
2024/02/19 07:07:14;;;;;;;0.38;0.38;;;;;;;;;;5096176;28;20365;-68
2024/02/19 07:09:40;;;;;;;0.13;0.13;;;;;;;;;;5096362;28;20020;-67
2024/02/19 07:12:05;;;;;;;0.00;0.00;;;;;;;;;;5095793;28;20020;-67
2024/02/19 07:14:31;;;;;;;0.00;0.00;;;;;;;;;;5096032;28;20016;-68
2024/02/19 07:16:56;;;;;;;0.00;0.00;;;;;;;;;;5095975;28;20020;-68
2024/02/19 07:19:21;;;;;;;0.00;0.00;;;;;;;;;;5095933;28;20244;-67
2024/02/19 07:21:46;;;;;;;0.07;0.07;;;;;;;;;;5095844;28;20414;-68
2024/02/19 07:24:12;;;;;;;0.17;0.17;;;;;;;;;;5095876;28;20654;-68
2024/02/19 07:26:37;;;;;;;0.00;0.00;;;;;;;;;;5096041;28;20573;-68
2024/02/19 07:29:04;;;;;;;0.17;0.17;;;;;;;;;;5095783;28;20773;-67
2024/02/19 07:31:29;;;;;;;0.10;0.10;;;;;;;;;;5095630;28;20272;-67
2024/02/19 07:33:55;;;;;;;0.00;0.00;;;;;;;;;;5095650;28;20043;-67
2024/02/19 07:36:20;;;;;;;0.00;0.00;;;;;;;;;;5095779;28;20334;-67
2024/02/19 07:38:45;;;;;;;0.10;0.10;;;;;;;;;;5095614;28;20063;-68
2024/02/19 07:41:14;;;;;;;0.00;0.00;;;;;;;;;;5095352;28;20044;-67
2024/02/19 07:43:39;;;;;;;0.00;0.00;;;;;;;;;;5095721;28;20277;-68
2024/02/19 07:46:04;;;;;;;0.00;0.00;;;;;;;;;;5095469;28;20121;-67
2024/02/19 07:48:30;;;;;;;0.00;0.00;;;;;;;;;;5094729;28;20265;-68
2024/02/19 07:50:55;;;;;;;0.10;0.10;;;;;;;;;;5095431;28;20487;-68
2024/02/19 07:53:20;;;;;;;0.00;0.00;;;;;;;;;;5095294;28;20012;-68
2024/02/19 07:55:45;;;;;;;0.00;0.00;;;;;;;;;;5095239;28;20529;-68
2024/02/19 07:58:13;;;;;;;0.10;0.10;;;;;;;;;;5095191;28;20024;-68
2024/02/19 08:00:38;;;;;;;0.00;0.00;;;;;;;;;;5095352;28;20431;-68
2024/02/19 08:03:03;;;;;;;0.00;0.00;;;;;;;;;;5095058;28;20028;-68
2024/02/19 08:05:29;;;;;;;0.20;0.20;;;;;;;;;;5094993;28;20063;-68
2024/02/19 08:07:54;;;;;;;0.00;0.00;;;;;;;;;;5095096;28;20385;-66
2024/02/19 08:10:19;;;;;;;0.00;0.00;;;;;;;;;;5095068;28;20020;-66
2024/02/19 08:12:44;;;;;;;0.00;0.00;;;;;;;;;;5094863;28;20150;-66
2024/02/19 08:15:10;;;;;;;0.13;0.13;;;;;;;;;;5094862;28;20016;-67
2024/02/19 08:17:35;;;;;;;0.00;0.00;;;;;;;;;;5094855;28;20241;-66
2024/02/19 08:20:00;;;;;;;0.00;0.00;;;;;;;;;;5094991;28;20051;-67
2024/02/19 08:22:25;;;;;;;0.00;0.00;;;;;;;;;;5094691;28;20357;-67
2024/02/19 08:24:51;;;;;;;0.00;0.00;;;;;;;;;;5094596;28;20603;-67
2024/02/19 08:27:16;;;;;;;0.00;0.00;;;;;;;;;;5094632;28;20099;-66
2024/02/19 08:29:41;;;;;;;0.53;0.33;;;;;;;;;;5094614;28;20328;-66
2024/02/19 08:32:07;;;;;;;0.17;0.17;;;;;;;;;;5094484;28;20378;-66
2024/02/19 08:34:32;;;;;;;0.00;0.00;;;;;;;;;;5094704;28;20137;-66
2024/02/19 08:36:57;;;;;;;0.87;0.47;;;;;;;;;;5094437;28;20020;-67
2024/02/19 08:39:23;;;;;;;0.00;0.00;;;;;;;;;;5094627;28;20352;-66
2024/02/19 08:41:48;;;;;;;0.10;0.10;;;;;;;;;;5094273;28;20049;-67
2024/02/19 08:44:14;;;;;;;0.00;0.00;;;;;;;;;;5094522;28;20241;-66
2024/02/19 08:46:39;;;;;;;0.00;0.00;;;;;;;;;;5094478;28;20115;-66
2024/02/19 08:49:04;;;;;;;0.00;0.00;;;;;;;;;;5094277;28;20051;-66
2024/02/19 08:51:30;;;;;;;0.00;0.00;;;;;;;;;;5094399;28;20024;-66
2024/02/19 08:53:55;;;;;;;0.10;0.10;;;;;;;;;;5094335;28;20241;-66
2024/02/19 08:56:20;;;;;;;0.10;0.10;;;;;;;;;;5094117;28;20487;-66
2024/02/19 08:58:46;;;;;;;0.23;0.23;;;;;;;;;;5094043;28;20020;-66
2024/02/19 09:01:12;;;;;;;0.20;0.20;;;;;;;;;;5094013;28;20032;-66
2024/02/19 09:03:38;;;;;;;0.20;0.20;;;;;;;;;;5094122;28;20249;-67
2024/02/19 09:06:03;;;;;;;0.00;0.00;;;;;;;;;;5094007;28;20029;-67
2024/02/19 09:08:29;;;;;;;0.10;0.10;;;;;;;;;;5094127;28;20051;-66
2024/02/19 09:10:54;;;;;;;0.20;0.20;;;;;;;;;;5093752;28;20024;-66
2024/02/19 09:13:19;;;;;;;0.13;0.13;;;;;;;;;;5093766;28;20028;-66
2024/02/19 09:15:45;;;;;;;0.37;0.37;;;;;;;;;;5093805;28;20069;-66
2024/02/19 09:18:10;;;;;;;0.00;0.00;;;;;;;;;;5093765;28;20237;-68
2024/02/19 09:20:36;;;;;;;0.00;0.00;;;;;;;;;;5093919;28;20054;-68
2024/02/19 09:23:01;;;;;;;0.00;0.00;;;;;;;;;;5093759;28;20261;-68
2024/02/19 09:25:26;;;;;;;0.00;0.00;;;;;;;;;;5093578;28;20035;-68
2024/02/19 09:27:52;;;;;;;0.47;0.40;;;;;;;;;;5093583;28;20069;-68
2024/02/19 09:30:18;;;;;;;0.10;0.10;;;;;;;;;;5075250;28;20260;-68
2024/02/19 09:32:43;;;;;;;0.10;0.10;;;;;;;;;;5093571;28;20044;-68
2024/02/19 09:35:08;;;;;;;0.20;0.20;;;;;;;;;;5093476;28;20256;-68
2024/02/19 09:37:33;;;;;;;1.45;1.27;;;;;;;;;;5093522;28;20017;-68
2024/02/19 09:39:59;;;;;;;0.27;0.27;;;;;;;;;;5093468;28;20381;-68
2024/02/19 09:42:27;;;;;;;0.13;0.13;;;;;;;;;;5093132;28;20681;-69
2024/02/19 09:44:53;;;;;;;0.43;0.43;;;;;;;;;;5093629;28;20391;-68
2024/02/19 09:47:19;;;;;;;0.75;0.75;;;;;;;;;;5093384;28;20020;-68
2024/02/19 09:49:46;;;;;;;1.42;1.33;;;;;;;;;;5093280;28;20020;-68
2024/02/19 09:52:13;;;;;;;0.82;0.82;;;;;;;;;;5093521;28;20515;-68
2024/02/19 09:54:39;;;;;;;2.05;0.90;;;;;;;;;;5093529;28;20016;-68
2024/02/19 09:57:09;;;;;;;0.90;0.77;;;;;;;;;;5093534;28;20123;-68
2024/02/19 09:59:36;;;;;;;0.40;0.40;;;;;;;;;;5093482;28;20099;-68
2024/02/19 10:02:01;;;;;;;0.40;0.40;;;;;;;;;;5093494;28;20016;-68
2024/02/19 10:04:27;;;;;;;0.17;0.17;;;;;;;;;;5093449;28;20542;-68
2024/02/19 10:06:52;;;;;;;0.22;0.22;;;;;;;;;;5093431;28;20682;-68
2024/02/19 10:09:19;;;;;;;0.28;0.28;;;;;;;;;;5093133;28;20028;-68
2024/02/19 10:11:47;;;;;;;0.10;0.10;;;;;;;;;;5094295;28;20027;-68
2024/02/19 10:14:12;;;;;;;0.38;0.38;;;;;;;;;;5097446;28;20016;-68
2024/02/19 10:16:37;;;;;;;0.30;0.30;;;;;;;;;;5097167;28;20012;-68
2024/02/19 10:19:03;;;;;;;0.27;0.27;;;;;;;;;;5097179;28;20248;-68
2024/02/19 10:21:29;;;;;;;0.20;0.20;;;;;;;;;;5097024;28;20616;-68
2024/02/19 10:23:54;;;;;;;0.55;0.30;;;;;;;;;;5097037;28;20035;-68
2024/02/19 10:26:19;;;;;;;0.17;0.17;;;;;;;;;;5096994;28;20023;-68
2024/02/19 10:28:45;;;;;;;0.33;0.33;;;;;;;;;;5097058;28;20441;-68
2024/02/19 10:31:13;;;;;;;0.28;0.28;;;;;;;;;;5097047;28;20027;-68
2024/02/19 10:33:41;;;;;;;0.08;0.08;;;;;;;;;;5078677;28;20016;-68
2024/02/19 10:36:07;;;;;;;0.45;0.45;;;;;;;;;;5096664;28;20090;-68
2024/02/19 10:38:32;;;;;;;0.10;0.10;;;;;;;;;;5096815;28;20388;-68
2024/02/19 10:40:58;;;;;;;2.53;0.50;;;;;;;;;;5096730;28;20051;-68
2024/02/19 10:43:23;;;;;;;1.08;1.08;;;;;;;;;;5096865;28;20256;-68
2024/02/19 10:45:50;;;;;;;0.90;0.85;;;;;;;;;;5096837;28;20437;-68
2024/02/19 10:48:15;;;;;;;0.15;0.15;;;;;;;;;;5096796;28;20506;-68
2024/02/19 10:50:41;;;;;;;0.00;0.00;;;;;;;;;;5096497;28;20052;-68
2024/02/19 10:53:06;;;;;;;0.38;0.38;;;;;;;;;;5096511;28;20073;-68
2024/02/19 10:55:34;;;;;;;0.70;0.63;;;;;;;;;;5096635;28;20020;-69
2024/02/19 10:58:00;;;;;;;0.00;0.00;;;;;;;;;;5096374;28;20077;-68
2024/02/19 11:00:28;;;;;;;0.22;0.22;;;;;;;;;;5096591;28;20024;-68
2024/02/19 11:03:06;;;;;;;0.05;0.05;;;;;;;;;;5096268;28;20164;-68
2024/02/19 11:05:50;;;;;;;0.10;0.10;;;;;;;;;;5096419;28;20464;-68
2024/02/19 11:08:22;;;;;;;0.20;0.20;;;;;;;;;;5096162;28;20020;-68
2024/02/19 11:10:48;;;;;;;0.40;0.40;;;;;;;;;;5096270;28;20028;-68
2024/02/19 11:13:14;;;;;;;0.03;0.03;;;;;;;;;;5096193;28;20457;-68
2024/02/19 11:15:42;;;;;;;0.35;0.35;;;;;;;;;;5096279;28;20389;-68
2024/02/19 11:18:08;;;;;;;0.60;0.60;;;;;;;;;;5096238;28;20026;-68
2024/02/19 11:20:34;;;;;;;1.00;0.85;;;;;;;;;;5095919;28;20031;-68
2024/02/19 11:22:59;;;;;;;0.28;0.28;;;;;;;;;;5094706;28;20008;-68
2024/02/19 11:25:24;;;;;;;0.95;0.85;;;;;;;;;;5096080;28;20054;-68
2024/02/19 11:27:50;;;;;;;0.33;0.33;;;;;;;;;;5095749;28;20048;-68
2024/02/19 11:30:15;;;;;;;0.47;0.45;;;;;;;;;;5095964;28;20269;-68
2024/02/19 11:32:40;;;;;;;0.30;0.30;;;;;;;;;;5095667;28;20467;-68
2024/02/19 11:35:13;;;;;;;0.00;0.00;;;;;;;;;;5095939;28;20091;-67
2024/02/19 11:37:38;;;;;;;0.25;0.25;;;;;;;;;;5095709;28;20353;-67
2024/02/19 11:40:05;;;;;;;0.20;0.20;;;;;;;;;;5095603;28;20070;-66
2024/02/19 11:42:30;;;;;;;0.55;0.40;;;;;;;;;;5095366;28;20352;-66
2024/02/19 11:44:55;;;;;;;0.10;0.10;;;;;;;;;;5095446;28;20502;-66
2024/02/19 11:47:21;;;;;;;0.20;0.20;;;;;;;;;;5095385;28;20034;-66
2024/02/19 11:49:47;;;;;;;1.23;1.13;;;;;;;;;;5095405;28;20426;-67
2024/02/19 11:52:13;;;;;;;0.57;0.52;;;;;;;;;;5095146;28;20028;-66
2024/02/19 11:54:40;;;;;;;0.10;0.10;;;;;;;;;;5095544;28;20023;-67
2024/02/19 11:57:08;;;;;;;0.45;0.45;;;;;;;;;;5095162;28;20020;-66
2024/02/19 11:59:34;;;;;;;0.10;0.10;;;;;;;;;;5095433;28;20521;-66
2024/02/19 12:01:59;;;;;;;0.15;0.15;;;;;;;;;;5095354;28;20039;-66
2024/02/19 12:04:25;;;;;;;0.70;0.55;;;;;;;;;;5095302;28;20024;-66
2024/02/19 12:06:50;;;;;;;0.03;0.03;;;;;;;;;;5095213;28;20240;-66
2024/02/19 12:09:15;;;;;;;0.10;0.10;;;;;;;;;;5095037;28;20535;-66
2024/02/19 12:11:41;;;;;;;0.00;0.00;;;;;;;;;;5095061;28;20343;-66
2024/02/19 12:14:11;;;;;;;0.00;0.00;;;;;;;;;;5095198;28;20375;-66
2024/02/19 12:16:36;;;;;;;1.20;0.40;;;;;;;;;;5095102;28;20020;-67
2024/02/19 12:19:01;;;;;;;0.10;0.10;;;;;;;;;;5095069;28;20371;-66
2024/02/19 12:21:27;;;;;;;0.10;0.10;;;;;;;;;;5094729;28;20020;-66
2024/02/19 12:23:53;;;;;;;0.00;0.00;;;;;;;;;;5094644;28;20241;-66
2024/02/19 12:26:18;;;;;;;1.75;1.45;;;;;;;;;;5094624;28;20024;-66
2024/02/19 12:28:44;;;;;;;0.00;0.00;;;;;;;;;;5094838;28;20107;-66
2024/02/19 12:31:09;;;;;;;0.10;0.10;;;;;;;;;;5094487;28;20042;-67
2024/02/19 12:33:37;;;;;;;0.10;0.10;;;;;;;;;;5094762;28;20464;-67
2024/02/19 12:36:08;;;;;;;0.10;0.10;;;;;;;;;;5094395;28;20081;-66
2024/02/19 12:38:34;;;;;;;0.00;0.00;;;;;;;;;;5094368;28;20091;-67
2024/02/19 12:40:59;;;;;;;0.15;0.15;;;;;;;;;;5094435;28;20048;-67
2024/02/19 12:43:25;;;;;;;0.20;0.20;;;;;;;;;;5094378;28;20027;-67
2024/02/19 12:45:50;;;;;;;1.98;1.25;;;;;;;;;;5094245;28;20032;-66
2024/02/19 12:48:15;;;;;;;0.10;0.10;;;;;;;;;;5094571;28;20069;-68
2024/02/19 12:50:40;;;;;;;0.25;0.25;;;;;;;;;;5094402;28;20023;-68
2024/02/19 12:53:06;;;;;;;0.20;0.10;;;;;;;;;;5087558;28;20028;-68
2024/02/19 12:55:31;;;;;;;0.10;0.10;;;;;;;;;;5094075;28;20255;-68
2024/02/19 12:57:56;;;;;;;0.00;0.00;;;;;;;;;;5085372;28;20035;-68
2024/02/19 13:00:21;;;;;;;0.43;0.40;;;;;;;;;;5073770;28;20316;-68
2024/02/19 13:02:46;;;;;;;0.00;0.00;;;;;;;;;;5073765;28;20373;-68
2024/02/19 13:05:12;;;;;;;0.00;0.00;;;;;;;;;;5073958;28;20017;-68
2024/02/19 13:07:37;;;;;;;0.00;0.00;;;;;;;;;;5073654;28;20020;-68
2024/02/19 13:10:02;;;;;;;0.00;0.00;;;;;;;;;;5073662;28;20039;-68
2024/02/19 13:12:28;;;;;;;0.00;0.00;;;;;;;;;;5073442;28;20281;-68
2024/02/19 13:14:55;;;;;;;0.00;0.00;;;;;;;;;;5073808;28;20322;-68
2024/02/19 13:17:20;;;;;;;0.17;0.17;;;;;;;;;;5073806;28;20495;-68
2024/02/19 13:19:47;;;;;;;0.22;0.20;;;;;;;;;;5073735;28;20013;-68
2024/02/19 13:22:13;;;;;;;0.30;0.30;;;;;;;;;;5073704;28;20121;-67
2024/02/19 13:24:38;;;;;;;0.10;0.10;;;;;;;;;;5073695;28;20020;-68
2024/02/19 13:27:03;;;;;;;0.00;0.00;;;;;;;;;;5073350;28;20796;-68
2024/02/19 13:29:29;;;;;;;0.00;0.00;;;;;;;;;;5073655;28;20029;-68
2024/02/19 13:31:55;;;;;;;0.00;0.00;;;;;;;;;;5073524;28;20024;-67
2024/02/19 13:34:20;;;;;;;0.10;0.10;;;;;;;;;;5073317;28;20016;-67
2024/02/19 13:36:46;;;;;;;0.10;0.10;;;;;;;;;;5073329;28;20027;-68
2024/02/19 13:39:12;;;;;;;0.00;0.00;;;;;;;;;;5073350;28;20020;-68
2024/02/19 13:41:37;;;;;;;0.47;0.47;;;;;;;;;;5073166;28;20274;-67
2024/02/19 13:44:03;;;;;;;0.00;0.00;;;;;;;;;;5073222;28;20361;-67
2024/02/19 13:46:28;;;;;;;0.10;0.10;;;;;;;;;;5072790;28;20092;-67
2024/02/19 13:49:09;;;;;;;0.05;0.05;;;;;;;;;;5073160;28;20017;-68
2024/02/19 13:51:34;;;;;;;0.10;0.10;;;;;;;;;;5072999;28;20028;-67
2024/02/19 13:53:59;;;;;;;0.00;0.00;;;;;;;;;;5073408;28;20100;-67
2024/02/19 13:56:27;;;;;;;0.10;0.10;;;;;;;;;;5073108;28;20245;-67
2024/02/19 13:58:52;;;;;;;0.00;0.00;;;;;;;;;;5073478;28;20374;-67
2024/02/19 14:01:18;;;;;;;0.00;0.00;;;;;;;;;;5073025;28;20035;-68
2024/02/19 14:03:47;;;;;;;0.00;0.00;;;;;;;;;;5073408;28;20119;-67
2024/02/19 14:06:12;;;;;;;0.70;0.35;;;;;;;;;;5073248;28;20024;-67
2024/02/19 14:08:39;;;;;;;0.00;0.00;;;;;;;;;;5073214;28;20481;-68
2024/02/19 14:11:04;;;;;;;0.03;0.03;;;;;;;;;;5072738;28;20024;-68
2024/02/19 14:13:29;;;;;;;0.00;0.00;;;;;;;;;;5072922;28;20016;-68
2024/02/19 14:15:55;;;;;;;0.10;0.10;;;;;;;;;;5072943;28;20060;-68
2024/02/19 14:18:20;;;;;;;0.20;0.20;;;;;;;;;;5072956;28;20112;-68
2024/02/19 14:20:45;;;;;;;0.15;0.15;;;;;;;;;;5073124;28;20250;-68
2024/02/19 14:23:12;;;;;;;0.00;0.00;;;;;;;;;;5073092;28;20375;-67
2024/02/19 14:25:38;;;;;;;0.10;0.10;;;;;;;;;;5073157;28;20024;-67
2024/02/19 14:28:06;;;;;;;0.10;0.10;;;;;;;;;;5073057;28;20058;-67
2024/02/19 14:30:31;;;;;;;0.32;0.32;;;;;;;;;;5072993;28;20484;-67
2024/02/19 14:32:56;;;;;;;0.00;0.00;;;;;;;;;;5072724;28;20025;-68